createdAt,value
2018-09-23T00:01:50.486Z,100326.00
2018-09-23T00:04:18.275Z,100320.00
2018-09-23T00:06:46.253Z,100304.00
2018-09-23T00:09:14.151Z,100316.00
2018-09-23T00:11:41.998Z,100309.00
2018-09-23T00:14:09.849Z,100308.00
2018-09-23T00:16:37.600Z,100320.00
2018-09-23T00:19:05.527Z,100313.00
2018-09-23T00:21:33.285Z,100309.00
2018-09-23T00:24:01.236Z,100301.00
2018-09-23T00:26:29.064Z,100299.00
2018-09-23T00:28:56.877Z,100304.00
2018-09-23T00:31:24.708Z,100292.00
2018-09-23T00:33:52.596Z,100288.00
2018-09-23T00:36:20.422Z,100290.00
2018-09-23T00:38:48.260Z,100276.00
2018-09-23T00:41:16.101Z,100276.00
2018-09-23T00:43:43.869Z,100277.00
2018-09-23T00:46:11.762Z,100282.00
2018-09-23T00:48:39.598Z,100277.00
2018-09-23T00:51:07.352Z,100265.00
2018-09-23T00:53:35.177Z,100269.00
2018-09-23T00:56:03.047Z,100266.00
2018-09-23T00:58:30.812Z,100254.00
2018-09-23T01:00:58.679Z,100254.00
2018-09-23T01:03:26.476Z,100253.00
2018-09-23T01:05:54.317Z,100251.00
2018-09-23T01:08:22.194Z,100261.00
2018-09-23T01:10:50.058Z,100267.00
2018-09-23T01:13:17.928Z,100263.00
2018-09-23T01:15:45.800Z,100263.00
2018-09-23T01:18:13.646Z,100260.00
2018-09-23T01:20:41.513Z,100249.00
2018-09-23T01:23:09.316Z,100267.00
2018-09-23T01:25:37.201Z,100264.00
2018-09-23T01:28:05.172Z,100267.00
2018-09-23T01:30:33.076Z,100255.00
2018-09-23T01:33:00.949Z,100257.00
2018-09-23T01:35:28.792Z,100248.00
2018-09-23T01:37:56.581Z,100251.00
2018-09-23T01:40:24.423Z,100250.00
2018-09-23T01:42:52.238Z,100247.00
2018-09-23T01:45:20.000Z,100247.00
2018-09-23T01:47:47.784Z,100244.00
2018-09-23T01:50:15.620Z,100236.00
2018-09-23T01:52:43.390Z,100244.00
2018-09-23T01:55:11.159Z,100244.00
2018-09-23T01:57:38.999Z,100243.00
2018-09-23T02:00:06.870Z,100240.00
2018-09-23T02:02:34.781Z,100236.00
2018-09-23T02:05:02.636Z,100228.00
2018-09-23T02:07:30.387Z,100226.00
2018-09-23T02:09:58.176Z,100229.00
2018-09-23T02:12:25.933Z,100225.00
2018-09-23T02:14:53.780Z,100221.00
2018-09-23T02:17:21.648Z,100216.00
2018-09-23T02:19:49.392Z,100218.00
2018-09-23T02:22:17.230Z,100211.00
2018-09-23T02:24:44.976Z,100204.00
2018-09-23T02:27:12.757Z,100204.00
2018-09-23T02:29:40.519Z,100196.00
2018-09-23T02:32:08.334Z,100202.00
2018-09-23T02:34:36.060Z,100194.00
2018-09-23T02:37:03.900Z,100205.00
2018-09-23T02:39:31.828Z,100215.00
2018-09-23T02:41:59.714Z,100211.00
2018-09-23T02:44:27.446Z,100205.00
2018-09-23T02:46:55.320Z,100207.00
2018-09-23T02:49:23.174Z,100209.00
2018-09-23T02:51:51.004Z,100210.00
2018-09-23T02:54:18.831Z,100201.00
2018-09-23T02:56:46.598Z,100198.00
2018-09-23T02:59:14.376Z,100186.00
2018-09-23T03:01:42.193Z,100189.00
2018-09-23T03:04:10.032Z,100191.00
2018-09-23T03:06:37.847Z,100188.00
2018-09-23T03:09:06.189Z,100189.00
2018-09-23T03:11:33.965Z,100194.00
2018-09-23T03:14:01.836Z,100189.00
2018-09-23T03:16:29.620Z,100178.00
2018-09-23T03:18:57.397Z,100178.00
2018-09-23T03:21:25.272Z,100183.00
2018-09-23T03:23:53.097Z,100173.00
2018-09-23T03:26:21.066Z,100176.00
2018-09-23T03:28:48.930Z,100170.00
2018-09-23T03:31:16.690Z,100162.00
2018-09-23T03:33:44.566Z,100159.00
2018-09-23T03:36:12.350Z,100155.00
2018-09-23T03:38:40.178Z,100150.00
2018-09-23T03:41:07.974Z,100158.00
2018-09-23T03:43:35.701Z,100147.00
2018-09-23T03:46:03.482Z,100155.00
2018-09-23T03:48:31.329Z,100147.00
2018-09-23T03:50:59.157Z,100144.00
2018-09-23T03:53:26.898Z,100146.00
2018-09-23T03:55:54.648Z,100146.00
2018-09-23T03:58:22.458Z,100132.00
2018-09-23T04:00:50.245Z,100144.00
2018-09-23T04:03:18.008Z,100134.00
2018-09-23T04:05:45.859Z,100130.00
2018-09-23T04:08:13.653Z,100133.00
2018-09-23T04:10:41.500Z,100128.00
2018-09-23T04:13:09.292Z,100132.00
2018-09-23T04:15:37.140Z,100133.00
2018-09-23T04:18:05.338Z,100132.00
2018-09-23T04:20:33.166Z,100134.00
2018-09-23T04:23:00.996Z,100137.00
2018-09-23T04:25:28.816Z,100130.00
2018-09-23T04:27:56.617Z,100131.00
2018-09-23T04:30:24.416Z,100129.00
2018-09-23T04:32:52.188Z,100125.00
2018-09-23T04:35:19.960Z,100109.00
2018-09-23T04:37:47.890Z,100116.00
2018-09-23T04:40:15.784Z,100108.00
2018-09-23T04:42:43.641Z,100105.00
2018-09-23T04:45:11.461Z,100103.00
2018-09-23T04:47:39.381Z,100104.00
2018-09-23T04:50:07.223Z,100109.00
2018-09-23T04:52:34.992Z,100115.00
2018-09-23T04:55:02.864Z,100105.00
2018-09-23T04:57:30.690Z,100107.00
2018-09-23T04:59:58.605Z,100099.00
2018-09-23T05:02:26.448Z,100099.00
2018-09-23T05:04:54.213Z,100094.00
2018-09-23T05:07:22.041Z,100104.00
2018-09-23T05:09:49.857Z,100109.00
2018-09-23T05:12:17.700Z,100108.00
2018-09-23T05:14:45.610Z,100112.00
2018-09-23T05:17:13.457Z,100112.00
2018-09-23T05:19:41.318Z,100115.00
2018-09-23T05:22:09.108Z,100101.00
2018-09-23T05:24:36.888Z,100111.00
2018-09-23T05:27:04.826Z,100103.00
2018-09-23T05:29:32.721Z,100096.00
2018-09-23T05:32:00.517Z,100081.00
2018-09-23T05:34:28.284Z,100082.00
2018-09-23T05:36:56.164Z,100091.00
2018-09-23T05:39:23.998Z,100093.00
2018-09-23T05:41:51.830Z,100090.00
2018-09-23T05:44:19.806Z,100087.00
2018-09-23T05:46:47.753Z,100083.00
2018-09-23T05:49:15.574Z,100086.00
2018-09-23T05:51:43.374Z,100078.00
2018-09-23T05:54:11.176Z,100078.00
2018-09-23T05:56:39.033Z,100070.00
2018-09-23T05:59:07.060Z,100059.00
2018-09-23T06:01:34.802Z,100057.00
2018-09-23T06:04:02.632Z,100055.00
2018-09-23T06:06:30.493Z,100056.00
2018-09-23T06:08:58.383Z,100051.00
2018-09-23T06:11:26.123Z,100041.00
2018-09-23T06:13:53.936Z,100032.00
2018-09-23T06:16:21.881Z,100021.00
2018-09-23T06:18:49.761Z,100014.00
2018-09-23T06:21:17.582Z,100010.00
2018-09-23T06:23:45.352Z,100017.00
2018-09-23T06:26:13.168Z,100012.00
2018-09-23T06:28:40.922Z,100019.00
2018-09-23T06:31:08.793Z,100014.00
2018-09-23T06:33:36.629Z,100015.00
2018-09-23T06:36:04.468Z,100020.00
2018-09-23T06:38:32.306Z,100038.00
2018-09-23T06:41:00.144Z,100041.00
2018-09-23T06:43:27.948Z,100031.00
2018-09-23T06:45:55.718Z,100034.00
2018-09-23T06:48:23.585Z,100023.00
2018-09-23T06:50:51.440Z,100014.00
2018-09-23T06:53:19.339Z,100003.00
2018-09-23T06:55:47.137Z,100005.00
2018-09-23T06:58:14.949Z,100009.00
2018-09-23T07:00:42.807Z,100007.00
2018-09-23T07:03:10.634Z,100019.00
2018-09-23T07:05:38.500Z,100019.00
2018-09-23T07:08:06.599Z,100021.00
2018-09-23T07:10:34.429Z,100018.00
2018-09-23T07:13:02.266Z,100029.00
2018-09-23T07:15:30.146Z,100030.00
2018-09-23T07:17:58.022Z,100034.00
2018-09-23T07:20:25.889Z,100033.00
2018-09-23T07:22:53.767Z,100021.00
2018-09-23T07:25:21.645Z,100026.00
2018-09-23T07:27:49.492Z,100025.00
2018-09-23T07:30:17.269Z,100017.00
2018-09-23T07:32:45.075Z,100023.00
2018-09-23T07:35:13.009Z,100016.00
2018-09-23T07:37:41.817Z,100015.00
2018-09-23T07:40:09.624Z,100010.00
2018-09-23T07:42:37.436Z,100026.00
2018-09-23T07:45:05.284Z,100013.00
2018-09-23T07:47:33.086Z,100018.00
2018-09-23T07:50:00.956Z,100020.00
2018-09-23T07:52:28.893Z,100020.00
2018-09-23T07:54:56.801Z,100007.00
2018-09-23T07:57:24.596Z,99980.00
2018-09-23T07:59:52.481Z,99979.00
2018-09-23T08:02:20.397Z,99975.00
2018-09-23T08:04:48.181Z,99980.00
2018-09-23T08:07:16.062Z,99980.00
2018-09-23T08:09:43.852Z,99990.00
2018-09-23T08:12:11.672Z,99984.00
2018-09-23T08:14:39.764Z,100002.00
2018-09-23T08:17:07.339Z,99998.00
2018-09-23T08:19:35.158Z,100016.00
2018-09-23T08:22:02.936Z,100024.00
2018-09-23T08:24:30.808Z,100011.00
2018-09-23T08:26:58.633Z,99993.00
2018-09-23T08:29:26.496Z,99975.00
2018-09-23T08:31:54.296Z,99977.00
2018-09-23T08:34:22.104Z,99982.00
2018-09-23T08:36:49.981Z,99980.00
2018-09-23T08:39:17.761Z,99979.00
2018-09-23T08:41:45.607Z,99976.00
2018-09-23T08:44:13.332Z,99976.00
2018-09-23T08:46:41.217Z,99971.00
2018-09-23T08:49:09.043Z,99966.00
2018-09-23T08:51:36.922Z,99961.00
2018-09-23T08:54:04.891Z,99954.00
2018-09-23T08:56:34.653Z,99955.00
2018-09-23T08:59:02.512Z,99944.00
2018-09-23T09:01:30.284Z,99944.00
2018-09-23T09:03:58.230Z,99936.00
2018-09-23T09:06:31.216Z,99931.00
2018-09-23T09:08:59.011Z,99935.00
2018-09-23T09:11:27.063Z,99919.00
2018-09-23T09:13:54.836Z,99929.00
2018-09-23T09:16:27.389Z,99922.00
2018-09-23T09:18:55.241Z,99910.00
2018-09-23T09:21:23.164Z,99920.00
2018-09-23T09:23:51.014Z,99923.00
2018-09-23T09:26:18.834Z,99913.00
2018-09-23T09:28:46.721Z,99910.00
2018-09-23T09:31:14.613Z,99919.00
2018-09-23T09:33:42.730Z,99917.00
2018-09-23T09:36:10.517Z,99916.00
2018-09-23T09:38:38.446Z,99900.00
2018-09-23T09:41:06.697Z,99892.00
2018-09-23T09:43:34.562Z,99894.00
2018-09-23T09:46:02.445Z,99891.00
2018-09-23T09:48:30.282Z,99887.00
2018-09-23T09:50:58.088Z,99890.00
2018-09-23T09:53:25.991Z,99891.00
2018-09-23T09:55:53.754Z,99892.00
2018-09-23T09:58:21.663Z,99888.00
2018-09-23T10:00:49.534Z,99871.00
2018-09-23T10:03:17.402Z,99868.00
2018-09-23T10:05:45.276Z,99861.00
2018-09-23T10:08:12.997Z,99859.00
2018-09-23T10:10:40.820Z,99853.00
2018-09-23T10:13:08.608Z,99859.00
2018-09-23T10:15:36.443Z,99857.00
2018-09-23T10:18:04.342Z,99843.00
2018-09-23T10:20:32.204Z,99838.00
2018-09-23T10:23:00.080Z,99844.00
2018-09-23T10:25:27.904Z,99836.00
2018-09-23T10:27:55.745Z,99825.00
2018-09-23T10:30:23.543Z,99817.00
2018-09-23T10:32:51.483Z,99808.00
2018-09-23T10:35:19.384Z,99802.00
2018-09-23T10:37:47.277Z,99803.00
2018-09-23T10:40:15.177Z,99806.00
2018-09-23T10:42:43.021Z,99799.00
2018-09-23T10:45:10.888Z,99792.00
2018-09-23T10:47:38.679Z,99792.00
2018-09-23T10:50:23.294Z,99789.00
2018-09-23T10:52:51.304Z,99779.00
2018-09-23T10:55:19.124Z,99773.00
2018-09-23T10:57:47.000Z,99773.00
2018-09-23T11:00:14.847Z,99757.00
2018-09-23T11:02:42.649Z,99735.00
2018-09-23T11:05:10.471Z,99717.00
2018-09-23T11:07:38.330Z,99715.00
2018-09-23T11:10:06.172Z,99719.00
2018-09-23T11:12:33.990Z,99720.00
2018-09-23T11:15:01.831Z,99719.00
2018-09-23T11:17:29.648Z,99705.00
2018-09-23T11:19:57.416Z,99709.00
2018-09-23T11:22:25.271Z,99686.00
2018-09-23T11:24:53.049Z,99668.00
2018-09-23T11:27:20.841Z,99675.00
2018-09-23T11:29:48.685Z,99655.00
2018-09-23T11:32:16.448Z,99660.00
2018-09-23T11:34:44.376Z,99646.00
2018-09-23T11:37:12.212Z,99647.00
2018-09-23T11:39:39.954Z,99658.00
2018-09-23T11:42:07.828Z,99639.00
2018-09-23T11:44:35.716Z,99622.00
2018-09-23T11:47:03.637Z,99614.00
2018-09-23T11:49:31.602Z,99599.00
2018-09-23T11:51:59.606Z,99587.00
2018-09-23T11:54:27.508Z,99584.00
2018-09-23T11:56:55.353Z,99565.00
2018-09-23T11:59:23.292Z,99554.00
2018-09-23T12:01:51.726Z,99547.00
2018-09-23T12:04:19.672Z,99539.00
2018-09-23T12:06:47.449Z,99516.00
2018-09-23T12:09:15.305Z,99503.00
2018-09-23T12:11:43.189Z,99511.00
2018-09-23T12:14:11.528Z,99498.00
2018-09-23T12:16:39.434Z,99501.00
2018-09-23T12:19:07.277Z,99483.00
2018-09-23T12:21:35.132Z,99479.00
2018-09-23T12:24:03.036Z,99468.00
2018-09-23T12:30:03.315Z,99444.00
2018-09-23T12:32:31.344Z,99434.00
2018-09-23T12:34:59.149Z,99423.00
2018-09-23T12:37:27.197Z,99419.00
2018-09-23T12:39:55.042Z,99431.00
2018-09-23T12:42:22.780Z,99399.00
2018-09-23T12:44:50.624Z,99388.00
2018-09-23T12:47:18.484Z,99380.00
2018-09-23T12:49:46.370Z,99361.00
2018-09-23T12:52:14.288Z,99347.00
2018-09-23T12:54:42.143Z,99334.00
2018-09-23T12:57:09.947Z,99308.00
2018-09-23T12:59:37.796Z,99293.00
2018-09-23T13:02:05.612Z,99289.00
2018-09-23T13:04:33.417Z,99289.00
2018-09-23T13:07:01.292Z,99279.00
2018-09-23T13:09:29.100Z,99260.00
2018-09-23T13:11:57.036Z,99254.00
2018-09-23T13:14:24.860Z,99231.00
2018-09-23T13:16:52.672Z,99223.00
2018-09-23T13:19:20.560Z,99200.00
2018-09-23T13:21:48.425Z,99189.00
2018-09-23T13:24:16.207Z,99189.00
2018-09-23T13:26:44.081Z,99190.00
2018-09-23T13:29:11.881Z,99152.00
2018-09-23T13:31:39.797Z,99147.00
2018-09-23T13:34:07.669Z,99132.00
2018-09-23T13:36:36.827Z,99114.00
2018-09-23T13:39:05.652Z,99092.00
2018-09-23T13:41:33.475Z,99067.00
2018-09-23T13:44:01.387Z,99057.00
2018-09-23T13:46:29.207Z,99040.00
2018-09-23T13:48:57.146Z,99034.00
2018-09-23T13:51:25.046Z,99012.00
2018-09-23T13:53:52.948Z,99014.00
2018-09-23T13:56:20.789Z,99028.00
2018-09-23T14:02:01.937Z,99008.00
2018-09-23T14:04:29.781Z,98988.00
2018-09-23T14:06:57.624Z,98978.00
2018-09-23T14:09:25.405Z,98978.00
2018-09-23T14:11:53.217Z,98989.00
2018-09-23T14:14:21.081Z,98945.00
2018-09-23T14:16:48.945Z,98922.00
2018-09-23T14:19:16.724Z,98903.00
2018-09-23T14:21:44.557Z,98903.00
2018-09-23T14:24:12.453Z,98877.00
2018-09-23T14:26:40.314Z,98872.00
2018-09-23T14:29:08.145Z,98853.00
2018-09-23T14:31:36.028Z,98848.00
2018-09-23T14:34:03.916Z,98839.00
2018-09-23T14:36:31.981Z,98850.00
2018-09-23T14:38:59.889Z,98863.00
2018-09-23T14:41:27.704Z,98864.00
2018-09-23T14:43:55.492Z,98854.00
2018-09-23T14:46:23.240Z,98855.00
2018-09-23T14:48:51.107Z,98828.00
2018-09-23T14:51:18.925Z,98812.00
2018-09-23T14:53:46.785Z,98792.00
2018-09-23T14:56:15.376Z,98765.00
2018-09-23T14:58:43.102Z,98775.00
2018-09-23T15:04:17.912Z,98819.00
2018-09-23T15:06:45.743Z,98791.00
2018-09-23T15:09:17.628Z,98764.00
2018-09-23T15:11:45.500Z,98714.00
2018-09-23T15:14:13.365Z,98705.00
2018-09-23T15:16:41.190Z,98689.00
2018-09-23T15:19:08.972Z,98673.00
2018-09-23T15:21:36.736Z,98677.00
2018-09-23T15:24:04.516Z,98665.00
2018-09-23T15:26:32.371Z,98645.00
2018-09-23T15:29:00.201Z,98639.00
2018-09-23T15:31:28.172Z,98625.00
2018-09-23T15:33:55.961Z,98631.00
2018-09-23T15:36:23.766Z,98612.00
2018-09-23T15:38:51.551Z,98585.00
2018-09-23T15:41:19.376Z,98571.00
2018-09-23T15:43:47.229Z,98580.00
2018-09-23T15:46:15.073Z,98554.00
2018-09-23T15:48:42.880Z,98563.00
2018-09-23T15:51:10.712Z,98565.00
2018-09-23T15:53:38.464Z,98569.00
2018-09-23T15:56:06.304Z,98623.00
2018-09-23T15:58:34.126Z,98642.00
2018-09-23T16:01:01.956Z,98671.00
2018-09-23T16:03:36.579Z,98654.00
2018-09-23T16:06:04.389Z,98623.00
2018-09-23T16:08:32.132Z,98612.00
2018-09-23T16:10:59.888Z,98565.00
2018-09-23T16:13:27.572Z,98538.00
2018-09-23T16:15:55.317Z,98576.00
2018-09-23T16:18:23.036Z,98569.00
2018-09-23T16:20:50.627Z,98575.00
2018-09-23T16:23:18.243Z,98555.00
2018-09-23T16:25:45.861Z,98556.00
2018-09-23T16:28:21.202Z,98552.00
2018-09-23T16:32:35.435Z,98545.00
2018-09-23T16:36:26.925Z,98548.00
2018-09-23T16:40:18.017Z,98544.00
2018-09-23T16:43:54.325Z,98478.00
2018-09-23T16:46:22.121Z,98394.00
2018-09-23T16:48:49.913Z,98439.00
2018-09-23T16:51:17.784Z,98447.00
2018-09-23T16:56:32.013Z,98506.00
2018-09-23T16:58:59.546Z,98486.00
2018-09-23T17:01:27.064Z,98492.00
2018-09-23T17:03:54.601Z,98525.00
2018-09-23T17:06:22.337Z,98523.00
2018-09-23T17:09:07.133Z,98516.00
2018-09-23T17:11:34.721Z,98496.00
2018-09-23T17:14:02.245Z,98493.00
2018-09-23T17:16:29.778Z,98500.00
2018-09-23T17:18:58.406Z,98580.00
2018-09-23T17:21:25.965Z,98622.00
2018-09-23T17:23:53.592Z,98605.00
2018-09-23T17:26:21.112Z,98550.00
2018-09-23T17:28:48.636Z,98486.00
2018-09-23T17:31:16.152Z,98458.00
2018-09-23T17:33:43.655Z,98461.00
2018-09-23T17:36:11.178Z,98485.00
2018-09-23T17:38:38.713Z,98484.00
2018-09-23T17:41:06.376Z,98479.00
2018-09-23T17:43:33.895Z,98469.00
2018-09-23T17:46:01.432Z,98482.00
2018-09-23T17:48:29.022Z,98492.00
2018-09-23T17:50:56.559Z,98507.00
2018-09-23T17:53:24.088Z,98509.00
2018-09-23T17:55:51.647Z,98581.00
2018-09-23T17:58:19.173Z,98677.00
2018-09-23T18:00:46.738Z,98712.00
2018-09-23T18:03:14.264Z,98723.00
2018-09-23T18:05:42.295Z,98703.00
2018-09-23T18:08:09.838Z,98694.00
2018-09-23T18:10:37.380Z,98667.00
2018-09-23T18:13:05.031Z,98686.00
2018-09-23T18:15:32.576Z,98667.00
2018-09-23T18:18:00.136Z,98731.00
2018-09-23T18:20:39.592Z,98774.00
2018-09-23T18:23:07.163Z,98720.00
2018-09-23T18:25:34.717Z,98711.00
2018-09-23T18:28:02.263Z,98742.00
2018-09-23T18:30:29.804Z,98798.00
2018-09-23T18:32:57.343Z,98806.00
2018-09-23T18:35:24.887Z,98798.00
2018-09-23T18:37:52.627Z,98815.00
2018-09-23T18:43:22.839Z,98775.00
2018-09-23T18:45:50.372Z,98761.00
2018-09-23T18:48:17.916Z,98787.00
2018-09-23T18:50:45.448Z,98810.00
2018-09-23T18:53:18.723Z,98837.00
2018-09-23T18:55:47.276Z,98854.00
2018-09-23T18:58:14.808Z,98845.00
2018-09-23T19:00:42.358Z,98849.00
2018-09-23T19:03:10.046Z,98853.00
2018-09-23T19:05:37.582Z,98879.00
2018-09-23T19:08:05.128Z,98889.00
2018-09-23T19:10:32.667Z,98954.00
2018-09-23T19:14:08.724Z,98994.00
2018-09-23T19:16:36.289Z,99027.00
2018-09-23T19:19:03.832Z,99027.00
2018-09-23T19:21:31.384Z,99048.00
2018-09-23T19:23:59.044Z,99074.00
2018-09-23T19:26:26.957Z,99079.00
2018-09-23T19:28:54.655Z,99081.00
2018-09-23T19:31:22.195Z,99057.00
2018-09-23T19:33:49.732Z,99056.00
2018-09-23T19:36:17.383Z,99061.00
2018-09-23T19:38:44.925Z,99057.00
2018-09-23T19:41:12.481Z,99058.00
2018-09-23T19:43:48.748Z,99094.00
2018-09-23T19:46:17.347Z,99135.00
2018-09-23T19:48:49.204Z,99172.00
2018-09-23T19:51:16.762Z,99200.00
2018-09-23T19:53:44.295Z,99220.00
2018-09-23T19:56:25.165Z,99248.00
2018-09-23T19:58:52.708Z,99258.00
2018-09-23T20:01:20.261Z,99289.00
2018-09-23T20:03:47.803Z,99272.00
2018-09-23T20:06:15.336Z,99257.00
2018-09-23T20:08:59.647Z,99248.00
2018-09-23T20:11:27.192Z,99235.00
2018-09-23T20:14:09.507Z,99205.00
2018-09-23T20:16:37.120Z,99221.00
2018-09-23T20:19:05.128Z,99250.00
2018-09-23T20:21:32.699Z,99246.00
2018-09-23T20:24:00.255Z,99271.00
2018-09-23T20:26:27.849Z,99318.00
2018-09-23T20:28:55.783Z,99346.00
2018-09-23T20:31:31.827Z,99409.00
2018-09-23T20:33:59.633Z,99478.00
2018-09-23T20:36:27.555Z,99469.00
2018-09-23T20:38:55.467Z,99438.00
2018-09-23T20:41:23.404Z,99438.00
2018-09-23T20:43:51.236Z,99470.00
2018-09-23T20:46:19.050Z,99490.00
2018-09-23T20:48:46.852Z,99535.00
2018-09-23T20:51:14.722Z,99526.00
2018-09-23T20:53:42.492Z,99532.00
2018-09-23T20:56:10.240Z,99532.00
2018-09-23T20:58:38.088Z,99531.00
2018-09-23T21:01:06.366Z,99567.00
2018-09-23T21:03:34.177Z,99572.00
2018-09-23T21:06:01.992Z,99573.00
2018-09-23T21:08:29.747Z,99603.00
2018-09-23T21:10:57.550Z,99612.00
2018-09-23T21:13:25.421Z,99618.00
2018-09-23T21:15:53.201Z,99652.00
2018-09-23T21:18:21.130Z,99651.00
2018-09-23T21:20:48.977Z,99665.00
2018-09-23T21:23:16.873Z,99667.00
2018-09-23T21:25:44.745Z,99691.00
2018-09-23T21:28:12.690Z,99691.00
2018-09-23T21:30:40.584Z,99703.00
2018-09-23T21:33:08.424Z,99711.00
2018-09-23T21:35:36.270Z,99712.00
2018-09-23T21:38:04.084Z,99733.00
2018-09-23T21:40:31.975Z,99733.00
2018-09-23T21:42:59.797Z,99755.00
2018-09-23T21:45:27.678Z,99748.00
2018-09-23T21:47:55.602Z,99754.00
2018-09-23T21:53:00.992Z,99769.00
2018-09-23T21:58:05.424Z,99790.00
2018-09-23T22:00:39.172Z,99805.00
2018-09-23T22:03:07.105Z,99799.00
2018-09-23T22:05:35.101Z,99808.00
2018-09-23T22:08:03.076Z,99820.00
2018-09-23T22:10:31.041Z,99829.00
2018-09-23T22:12:59.053Z,99829.00
2018-09-23T22:15:26.985Z,99848.00
2018-09-23T22:17:56.063Z,99853.00
2018-09-23T22:20:24.889Z,99875.00
2018-09-23T22:22:53.030Z,99875.00
2018-09-23T22:25:21.432Z,99877.00
2018-09-23T22:27:49.453Z,99892.00
2018-09-23T22:32:59.488Z,99904.00
2018-09-23T22:35:27.309Z,99909.00
2018-09-23T22:37:55.152Z,99911.00
2018-09-23T22:40:23.042Z,99921.00
2018-09-23T22:42:50.922Z,99932.00
2018-09-23T22:45:18.862Z,99939.00
2018-09-23T22:47:46.737Z,99949.00
2018-09-23T22:50:14.557Z,99956.00
2018-09-23T22:52:42.373Z,99962.00
2018-09-23T22:55:10.182Z,99968.00
2018-09-23T22:57:38.006Z,99968.00
2018-09-23T23:00:05.804Z,99961.00
2018-09-23T23:02:33.693Z,99973.00
2018-09-23T23:05:01.556Z,99976.00
2018-09-23T23:07:29.484Z,99983.00
2018-09-23T23:09:57.320Z,99988.00
2018-09-23T23:12:25.210Z,99987.00
2018-09-23T23:14:53.077Z,99988.00
2018-09-23T23:17:20.881Z,99995.00
2018-09-23T23:19:48.712Z,99997.00
2018-09-23T23:22:16.559Z,100000.00
2018-09-23T23:24:44.434Z,100008.00
2018-09-23T23:27:12.321Z,100028.00
2018-09-23T23:29:40.157Z,100030.00
2018-09-23T23:32:08.238Z,100037.00
2018-09-23T23:34:36.053Z,100037.00
2018-09-23T23:37:03.950Z,100036.00
2018-09-23T23:39:31.714Z,100046.00
2018-09-23T23:41:59.451Z,100050.00
2018-09-23T23:44:27.220Z,100057.00
2018-09-23T23:46:55.011Z,100075.00
2018-09-23T23:49:22.819Z,100069.00
2018-09-23T23:51:50.676Z,100078.00
2018-09-23T23:54:18.442Z,100088.00
2018-09-23T23:56:46.186Z,100104.00
2018-09-23T23:59:14.027Z,100111.00
